Time;durP1;ratioP1;P1;durP2;ratioP2;P2;SDS_P1;SDS_P2;PMS_P1;PMS_P2;Temp;Humidity;BMP_temperature;BMP_pressure;BME280_temperature;BME280_humidity;BME280_pressure;Samples;Min_cycle;Max_cycle;Signal;HPM_P1;HPM_P2
2022/05/20 00:00:29;;;;;;;3.72;2.38;;;12.90;99.90;;;;;;5112712;28;20390;-78
2022/05/20 00:02:54;;;;;;;;;;;12.90;99.90;;;;;;5111875;28;20120;-77
2022/05/20 00:05:20;;;;;;;4.32;2.28;;;12.90;99.90;;;;;;5111008;28;20378;-78
2022/05/20 00:07:46;;;;;;;5.65;2.70;;;12.90;99.90;;;;;;5111232;28;20085;-78
2022/05/20 00:10:15;;;;;;;5.43;3.20;;;12.80;99.90;;;;;;5094398;28;20078;-78
2022/05/20 00:12:42;;;;;;;5.80;3.10;;;12.90;99.90;;;;;;5110928;28;20047;-78
2022/05/20 00:15:08;;;;;;;4.60;2.63;;;12.90;99.90;;;;;;5110875;28;20039;-77
2022/05/20 00:17:34;;;;;;;5.05;2.75;;;12.90;99.90;;;;;;5110933;28;20044;-77
2022/05/20 00:20:01;;;;;;;;;;;12.90;99.90;;;;;;5111064;28;20067;-78
2022/05/20 00:22:27;;;;;;;5.10;2.88;;;12.90;99.90;;;;;;5110947;28;19927;-78
2022/05/20 00:27:36;;;;;;;4.18;2.30;;;12.90;99.90;;;;;;5110942;28;20059;-78
2022/05/20 00:30:03;;;;;;;5.53;3.10;;;12.90;99.90;;;;;;5093977;28;20379;-78
2022/05/20 00:32:28;;;;;;;5.85;3.20;;;12.90;99.90;;;;;;5110685;28;20391;-78
2022/05/20 00:34:54;;;;;;;6.88;3.45;;;12.90;99.90;;;;;;5094061;28;20045;-78
2022/05/20 00:37:20;;;;;;;5.00;2.50;;;12.80;99.90;;;;;;5093411;28;20444;-77
2022/05/20 00:39:45;;;;;;;5.32;3.65;;;12.80;99.90;;;;;;5111850;28;20039;-77
2022/05/20 00:42:13;;;;;;;5.63;3.08;;;12.70;99.90;;;;;;5110358;28;20044;-77
2022/05/20 00:44:39;;;;;;;4.22;2.22;;;12.70;99.90;;;;;;5111739;28;20494;-77
2022/05/20 00:47:05;;;;;;;2.92;2.17;;;12.70;99.90;;;;;;5110241;28;20097;-78
2022/05/20 00:49:31;;;;;;;2.47;1.63;;;12.60;99.90;;;;;;5110292;28;20126;-78
2022/05/20 00:51:58;;;;;;;1.90;1.70;;;12.60;99.90;;;;;;5110311;28;20044;-78
2022/05/20 00:54:33;;;;;;;4.38;2.70;;;12.60;99.90;;;;;;5110240;28;20062;-78
2022/05/20 00:57:10;;;;;;;4.88;2.33;;;12.50;99.90;;;;;;5110107;28;20047;-78
2022/05/20 00:59:40;;;;;;;3.15;1.70;;;12.50;99.90;;;;;;5111560;28;20487;-78
2022/05/20 01:02:14;;;;;;;1.48;1.30;;;12.50;99.90;;;;;;5093260;28;20482;-78
2022/05/20 01:04:41;;;;;;;4.07;2.05;;;12.40;99.90;;;;;;5104618;28;20056;-78
2022/05/20 01:07:08;;;;;;;4.10;2.10;;;12.40;99.90;;;;;;5092404;28;20043;-78
2022/05/20 01:09:38;;;;;;;3.47;2.55;;;12.40;99.90;;;;;;5110357;28;20043;-78
2022/05/20 01:12:05;;;;;;;5.50;3.08;;;12.30;99.90;;;;;;5102917;28;20407;-77
2022/05/20 01:14:31;;;;;;;4.28;2.63;;;12.30;99.90;;;;;;5089547;28;20048;-78
2022/05/20 01:16:57;;;;;;;;;;;12.20;99.90;;;;;;5091597;28;20399;-78
2022/05/20 01:19:39;;;;;;;4.43;3.28;;;12.20;99.90;;;;;;5089765;28;19920;-77
2022/05/20 01:22:07;;;;;;;5.65;3.45;;;12.20;99.90;;;;;;5089540;28;20075;-77
2022/05/20 01:24:34;;;;;;;4.43;3.05;;;12.10;99.90;;;;;;5099523;28;20118;-78
2022/05/20 01:26:59;;;;;;;;;;;12.10;99.90;;;;;;5110387;28;20104;-78
2022/05/20 01:29:26;;;;;;;3.75;2.30;;;12.00;99.90;;;;;;5110386;28;19919;-78
2022/05/20 01:31:52;;;;;;;3.72;2.30;;;12.00;99.90;;;;;;5110545;28;20479;-77
2022/05/20 01:34:18;;;;;;;2.60;2.03;;;12.00;99.90;;;;;;5109959;28;20075;-77
2022/05/20 01:36:43;;;;;;;2.95;2.25;;;12.00;99.90;;;;;;5093371;28;20075;-78
2022/05/20 01:39:09;;;;;;;2.72;2.05;;;12.00;99.90;;;;;;5093292;28;20040;-77
2022/05/20 01:42:01;;;;;;;2.83;1.70;;;12.00;99.90;;;;;;5092902;28;20044;-77
2022/05/20 01:44:43;;;;;;;3.47;1.40;;;11.90;99.90;;;;;;5093050;28;20459;-76
2022/05/20 01:47:16;;;;;;;1.50;1.02;;;12.00;99.90;;;;;;5109967;28;20043;-77
2022/05/20 01:49:48;;;;;;;1.60;1.00;;;12.00;99.90;;;;;;5109631;28;20055;-77
2022/05/20 01:52:46;;;;;;;3.03;1.88;;;12.00;99.90;;;;;;5109959;28;20043;-77
2022/05/20 01:55:24;;;;;;;2.97;1.80;;;11.90;99.90;;;;;;5109972;28;20043;-79
2022/05/20 01:58:00;;;;;;;2.40;1.48;;;11.90;99.90;;;;;;5110934;28;20054;-78
2022/05/20 02:00:28;;;;;;;1.98;1.52;;;11.90;99.90;;;;;;5109606;28;20463;-78
2022/05/20 02:03:48;;;;;;;1.75;1.10;;;11.90;99.90;;;;;;5092886;28;20055;-78
2022/05/20 02:06:41;;;;;;;2.17;1.52;;;12.00;99.90;;;;;;5100457;28;20471;-77
2022/05/20 02:09:15;;;;;;;1.90;1.60;;;11.90;99.90;;;;;;5109484;28;20079;-77
2022/05/20 02:11:46;;;;;;;1.90;1.33;;;11.90;99.90;;;;;;5109631;28;20054;-78
2022/05/20 02:14:29;;;;;;;1.92;1.20;;;11.90;99.90;;;;;;5109537;28;20047;-78
2022/05/20 02:17:07;;;;;;;2.03;1.50;;;11.80;99.90;;;;;;5109524;28;20054;-77
2022/05/20 02:20:06;;;;;;;1.98;1.30;;;11.80;99.90;;;;;;5092826;28;20082;-77
2022/05/20 02:22:38;;;;;;;1.35;1.23;;;11.70;99.90;;;;;;5106604;28;20077;-77
2022/05/20 02:25:06;;;;;;;1.15;1.05;;;11.70;99.90;;;;;;5092923;28;20425;-77
2022/05/20 02:27:38;;;;;;;1.30;1.10;;;11.70;99.90;;;;;;5112054;28;20123;-77
2022/05/20 02:30:12;;;;;;;1.13;0.90;;;11.60;99.90;;;;;;5113406;28;20457;-77
2022/05/20 02:33:04;;;;;;;1.40;0.90;;;11.60;99.90;;;;;;5113155;28;20047;-77
2022/05/20 02:35:30;;;;;;;1.42;1.33;;;11.50;99.90;;;;;;5107218;28;20187;-77
2022/05/20 02:38:07;;;;;;;2.90;1.90;;;11.50;99.90;;;;;;5112819;28;20122;-78
2022/05/20 02:40:33;;;;;;;;;;;11.50;99.90;;;;;;5113456;28;20059;-78
2022/05/20 02:42:59;;;;;;;2.65;1.50;;;11.40;99.90;;;;;;5113131;28;19942;-77
2022/05/20 02:45:24;;;;;;;2.53;1.52;;;11.40;99.90;;;;;;5112571;28;20453;-77
2022/05/20 02:47:50;;;;;;;1.58;1.40;;;11.30;99.90;;;;;;5112749;28;20047;-77
2022/05/20 02:50:16;;;;;;;0.80;0.80;;;11.30;99.90;;;;;;5095427;28;20043;-77
2022/05/20 02:52:41;;;;;;;0.70;0.63;;;11.20;99.90;;;;;;5114369;28;20380;-77
2022/05/20 02:55:08;;;;;;;0.88;0.80;;;11.30;99.90;;;;;;5112615;28;20047;-78
2022/05/20 02:57:35;;;;;;;0.82;0.80;;;11.30;99.90;;;;;;5112802;28;20104;-78
2022/05/20 03:05:29;;;;;;;2.13;1.15;;;11.20;99.90;;;;;;5112494;28;20154;-77
2022/05/20 03:07:54;;;;;;;1.30;0.90;;;11.20;99.90;;;;;;5112331;28;20534;-77
2022/05/20 03:10:20;;;;;;;1.02;0.80;;;11.20;99.90;;;;;;5095560;28;20096;-77
2022/05/20 03:12:46;;;;;;;1.20;0.90;;;11.20;99.90;;;;;;5112349;28;20051;-77
2022/05/20 03:15:13;;;;;;;1.23;1.02;;;11.20;99.90;;;;;;5112307;28;20442;-77
2022/05/20 03:17:39;;;;;;;1.40;1.10;;;11.20;99.90;;;;;;5112152;28;20036;-77
2022/05/20 03:20:07;;;;;;;1.50;1.40;;;11.20;99.90;;;;;;5111830;28;20509;-77
2022/05/20 03:22:35;;;;;;;1.95;1.23;;;11.10;99.90;;;;;;5111965;28;20407;-77
2022/05/20 03:25:02;;;;;;;1.75;1.45;;;11.10;99.90;;;;;;5112272;28;20114;-77
2022/05/20 03:27:27;;;;;;;1.20;0.95;;;11.10;99.90;;;;;;5112028;28;20464;-77
2022/05/20 03:29:53;;;;;;;1.45;1.13;;;11.10;99.90;;;;;;5095014;28;20083;-77
2022/05/20 03:32:19;;;;;;;1.95;1.38;;;11.10;99.90;;;;;;5111645;28;20047;-77
2022/05/20 03:34:45;;;;;;;1.42;1.13;;;11.00;99.90;;;;;;5111514;28;20040;-77
2022/05/20 03:37:10;;;;;;;0.77;0.70;;;11.00;99.90;;;;;;5094520;28;20055;-77
2022/05/20 03:39:36;;;;;;;1.13;0.95;;;10.90;99.90;;;;;;5111242;28;20715;-77
2022/05/20 03:42:03;;;;;;;1.23;1.00;;;10.80;99.90;;;;;;5111206;28;20398;-76
2022/05/20 03:44:29;;;;;;;1.08;0.90;;;10.80;99.90;;;;;;5111378;28;20051;-78
2022/05/20 03:46:55;;;;;;;;;;;10.70;99.90;;;;;;5111603;28;20039;-78
2022/05/20 03:49:24;;;;;;;0.93;0.70;;;10.70;99.90;;;;;;5111128;28;19915;-78
2022/05/20 03:51:52;;;;;;;0.70;0.70;;;10.70;99.90;;;;;;5093898;28;20410;-78
2022/05/20 03:54:21;;;;;;;0.73;0.60;;;10.70;99.90;;;;;;5111171;28;20126;-77
2022/05/20 03:56:47;;;;;;;0.93;0.80;;;10.80;99.90;;;;;;5112105;28;20100;-78
2022/05/20 03:59:13;;;;;;;1.60;1.20;;;10.80;99.90;;;;;;5111218;28;20507;-77
2022/05/20 04:01:59;;;;;;;1.65;1.00;;;10.80;99.90;;;;;;5110850;28;20062;-77
2022/05/20 04:04:33;;;;;;;1.92;1.10;;;10.80;99.90;;;;;;5110687;28;20047;-78
2022/05/20 04:07:01;;;;;;;1.35;1.25;;;10.90;99.90;;;;;;5110873;28;20050;-77
2022/05/20 04:09:26;;;;;;;1.58;1.38;;;11.00;99.90;;;;;;5110654;28;20039;-77
2022/05/20 04:11:58;;;;;;;1.80;1.50;;;11.00;99.90;;;;;;5110786;28;20050;-77
2022/05/20 04:14:30;;;;;;;1.85;1.40;;;11.10;99.90;;;;;;5111072;28;20058;-77
2022/05/20 04:16:57;;;;;;;1.77;1.60;;;11.10;99.90;;;;;;5110698;28;20043;-77
2022/05/20 04:19:29;;;;;;;2.22;1.70;;;11.20;99.90;;;;;;5110806;28;20051;-77
2022/05/20 04:21:58;;;;;;;1.90;1.70;;;11.20;99.90;;;;;;5110583;28;20047;-77
2022/05/20 04:24:24;;;;;;;2.15;1.80;;;11.20;99.90;;;;;;5110389;28;20081;-77
2022/05/20 04:26:51;;;;;;;2.42;2.00;;;11.20;99.90;;;;;;5110952;28;20082;-77
2022/05/20 04:29:18;;;;;;;2.65;1.83;;;11.10;99.90;;;;;;5110699;28;20043;-77
2022/05/20 04:31:48;;;;;;;2.05;1.65;;;11.10;99.90;;;;;;5110616;28;20050;-78
2022/05/20 04:34:14;;;;;;;2.80;2.15;;;11.20;99.90;;;;;;5110797;28;20051;-78
2022/05/20 04:36:40;;;;;;;3.45;2.25;;;11.20;99.90;;;;;;5110160;28;20462;-77
2022/05/20 04:39:06;;;;;;;2.08;1.60;;;11.10;99.90;;;;;;5110370;28;20043;-77
2022/05/20 04:47:22;;;;;;;2.03;1.50;;;11.10;99.90;;;;;;5072354;28;20047;-77
2022/05/20 04:49:48;;;;;;;2.00;1.60;;;11.10;99.90;;;;;;5106860;28;20076;-77
2022/05/20 04:52:13;;;;;;;;;;;11.10;99.90;;;;;;5093599;28;20058;-77
2022/05/20 04:54:51;;;;;;;2.90;2.10;;;11.10;99.90;;;;;;5110345;28;19916;-78
2022/05/20 04:57:23;;;;;;;2.30;1.50;;;11.20;99.90;;;;;;5110007;28;20079;-77
2022/05/20 04:59:51;;;;;;;1.60;1.35;;;11.20;99.90;;;;;;5110352;28;20059;-77
2022/05/20 05:02:17;;;;;;;2.47;1.65;;;11.30;99.90;;;;;;5109948;28;20529;-78
2022/05/20 05:04:43;;;;;;;2.33;1.70;;;11.20;99.90;;;;;;5100518;28;20056;-77
2022/05/20 05:07:11;;;;;;;2.00;1.80;;;11.20;99.90;;;;;;5084812;28;20051;-78
2022/05/20 05:09:42;;;;;;;2.03;1.75;;;11.30;99.90;;;;;;5090858;28;20074;-77
2022/05/20 05:12:09;;;;;;;2.97;2.15;;;11.30;99.90;;;;;;5101783;28;20044;-77
2022/05/20 05:14:40;;;;;;;3.67;2.70;;;11.40;99.90;;;;;;5106934;28;20033;-77
2022/05/20 05:17:11;;;;;;;2.70;2.20;;;11.40;99.90;;;;;;5107480;28;20391;-77
2022/05/20 05:19:38;;;;;;;3.30;3.00;;;11.50;99.90;;;;;;5110507;28;20051;-77
2022/05/20 05:22:07;;;;;;;4.97;3.40;;;11.50;99.90;;;;;;5109800;28;20054;-77
2022/05/20 05:24:34;;;;;;;3.70;2.70;;;11.60;99.90;;;;;;5103913;28;20036;-77
2022/05/20 05:27:01;;;;;;;4.18;3.20;;;11.70;99.90;;;;;;5105682;28;20143;-77
2022/05/20 05:29:27;;;;;;;3.10;2.10;;;11.70;99.90;;;;;;5106885;28;20635;-75
2022/05/20 05:31:53;;;;;;;3.15;2.55;;;11.70;99.90;;;;;;5083056;28;20122;-76
2022/05/20 05:34:19;;;;;;;2.20;1.70;;;11.90;99.90;;;;;;5105639;28;20055;-76
2022/05/20 05:36:44;;;;;;;1.67;1.40;;;11.90;99.90;;;;;;5102883;28;20053;-76
2022/05/20 05:39:10;;;;;;;3.03;2.33;;;12.10;99.90;;;;;;5110024;28;20036;-75
2022/05/20 05:41:36;;;;;;;3.70;2.65;;;12.10;99.90;;;;;;5109783;28;20044;-75
2022/05/20 05:44:03;;;;;;;2.10;1.90;;;12.30;99.90;;;;;;5085020;28;20075;-76
2022/05/20 05:46:30;;;;;;;3.95;2.10;;;12.40;99.90;;;;;;5088846;28;20085;-76
2022/05/20 05:48:57;;;;;;;5.20;3.72;;;12.50;99.90;;;;;;5095696;28;20450;-76
2022/05/20 05:51:27;;;;;;;2.70;2.42;;;12.60;99.90;;;;;;5096464;28;20089;-76
2022/05/20 05:53:53;;;;;;;3.47;2.72;;;12.70;99.90;;;;;;5109981;28;20046;-77
2022/05/20 05:56:18;;;;;;;3.47;2.63;;;13.20;99.90;;;;;;5111121;28;20040;-76
2022/05/20 05:58:44;;;;;;;2.65;2.28;;;13.60;99.90;;;;;;5091691;28;20131;-77
2022/05/20 06:01:10;;;;;;;2.50;1.73;;;14.00;99.90;;;;;;5076342;28;20643;-77
2022/05/20 06:03:36;;;;;;;3.03;2.10;;;14.30;99.90;;;;;;5090338;28;20149;-78
2022/05/20 06:06:02;;;;;;;4.00;2.42;;;14.30;99.90;;;;;;5109793;28;20055;-77
2022/05/20 06:08:27;;;;;;;2.80;2.05;;;14.50;99.90;;;;;;5112888;28;20360;-77
2022/05/20 06:10:53;;;;;;;3.53;2.58;;;14.70;99.90;;;;;;5110760;28;20067;-77
2022/05/20 06:13:24;;;;;;;2.20;1.90;;;15.20;99.90;;;;;;5097958;28;20051;-77
2022/05/20 06:15:50;;;;;;;3.53;2.78;;;15.50;99.90;;;;;;5110125;28;20071;-76
2022/05/20 06:18:16;;;;;;;5.22;3.20;;;15.50;99.90;;;;;;5101032;28;20047;-77
2022/05/20 06:20:42;;;;;;;3.40;2.30;;;15.30;99.90;;;;;;5101043;28;20047;-77
2022/05/20 06:23:07;;;;;;;2.45;1.98;;;15.20;99.90;;;;;;5106002;28;20054;-77
2022/05/20 06:25:33;;;;;;;2.55;1.83;;;15.30;99.90;;;;;;5108559;28;20048;-76
2022/05/20 06:28:08;;;;;;;2.78;2.00;;;15.10;99.90;;;;;;5113581;28;20047;-77
2022/05/20 06:30:34;;;;;;;2.53;1.80;;;15.00;99.90;;;;;;5107880;27;20043;-77
2022/05/20 06:33:01;;;;;;;;;;;15.10;99.90;;;;;;5094852;28;20035;-77
2022/05/20 06:40:55;;;;;;;2.15;1.40;;;15.30;99.90;;;;;;5111233;28;20090;-77
2022/05/20 06:43:22;;;;;;;2.33;1.60;;;15.50;99.90;;;;;;5105921;28;20083;-77
2022/05/20 06:45:50;;;;;;;2.03;1.30;;;15.50;99.90;;;;;;5084796;28;20063;-78
2022/05/20 06:48:17;;;;;;;2.80;1.60;;;15.40;99.90;;;;;;5112533;28;20039;-77
2022/05/20 06:50:42;;;;;;;;;;;15.40;99.90;;;;;;5079624;28;20317;-76
2022/05/20 06:53:09;;;;;;;3.90;1.40;;;15.40;99.90;;;;;;5112784;28;19989;-77
2022/05/20 06:55:37;;;;;;;3.75;2.42;;;15.30;99.90;;;;;;5077581;28;20046;-77
2022/05/20 06:58:04;;;;;;;3.15;1.90;;;15.30;99.90;;;;;;5113802;28;20448;-77
2022/05/20 07:00:29;;;;;;;2.45;1.23;;;15.30;99.90;;;;;;5111295;28;20055;-77
2022/05/20 07:02:55;;;;;;;4.25;2.00;;;15.20;99.90;;;;;;5095553;28;20043;-77
2022/05/20 07:05:21;;;;;;;2.97;2.00;;;15.20;99.90;;;;;;5095355;28;20183;-77
2022/05/20 07:07:47;;;;;;;2.97;1.67;;;15.30;99.90;;;;;;5112272;28;20054;-77
2022/05/20 07:10:14;;;;;;;3.22;1.77;;;15.40;99.90;;;;;;5112239;28;20458;-77
2022/05/20 07:12:40;;;;;;;3.25;1.85;;;15.70;99.90;;;;;;5111299;28;20455;-77
2022/05/20 07:15:07;;;;;;;3.92;1.85;;;15.90;99.90;;;;;;5095404;28;20054;-77
2022/05/20 07:17:33;;;;;;;3.22;1.77;;;15.90;99.90;;;;;;5112308;28;20044;-77
2022/05/20 07:19:59;;;;;;;4.20;2.00;;;16.00;99.90;;;;;;5112000;28;20375;-77
2022/05/20 07:22:25;;;;;;;;;;;16.20;99.90;;;;;;5095665;28;20091;-77
2022/05/20 07:24:51;;;;;;;2.88;1.90;;;16.60;99.90;;;;;;5111943;28;20422;-77
2022/05/20 07:27:18;;;;;;;3.05;2.20;;;16.90;99.90;;;;;;5112083;28;20052;-77
2022/05/20 07:29:44;;;;;;;5.20;2.72;;;17.10;99.90;;;;;;5111845;28;20162;-76
2022/05/20 07:32:10;;;;;;;3.08;2.20;;;17.40;99.90;;;;;;5111740;28;20072;-77
2022/05/20 07:34:36;;;;;;;4.68;2.10;;;17.70;99.90;;;;;;5111449;28;20447;-78
2022/05/20 07:37:02;;;;;;;3.70;1.98;;;17.90;99.90;;;;;;5111543;28;20212;-77
2022/05/20 07:39:29;;;;;;;3.92;2.50;;;17.90;99.90;;;;;;5094394;28;20471;-77
2022/05/20 07:41:55;;;;;;;4.22;2.45;;;17.70;99.90;;;;;;5111672;28;20833;-78
2022/05/20 07:44:21;;;;;;;3.45;2.20;;;17.90;99.90;;;;;;5094454;28;20048;-77
2022/05/20 07:46:47;;;;;;;;;;;18.20;99.90;;;;;;5111766;28;20052;-77
2022/05/20 07:49:12;;;;;;;3.83;2.05;;;18.40;99.90;;;;;;5111700;28;19915;-77
2022/05/20 07:51:41;;;;;;;3.17;2.08;;;18.60;99.90;;;;;;5111483;28;20478;-77
2022/05/20 07:54:12;;;;;;;3.88;1.95;;;18.40;99.90;;;;;;5111284;28;20052;-79
2022/05/20 07:56:49;;;;;;;2.17;1.40;;;18.00;99.90;;;;;;5111874;28;20470;-78
2022/05/20 07:59:27;;;;;;;3.97;1.88;;;17.80;99.90;;;;;;5111214;28;20035;-78
2022/05/20 08:01:54;;;;;;;4.05;1.80;;;17.60;99.90;;;;;;5111327;28;20071;-78
2022/05/20 08:07:13;;;;;;;2.58;1.45;;;17.20;99.90;;;;;;5111394;28;20070;-77
2022/05/20 08:09:39;;;;;;;2.58;1.50;;;17.10;99.90;;;;;;5111195;28;20494;-78
2022/05/20 08:12:06;;;;;;;3.97;1.70;;;17.30;99.90;;;;;;5111078;28;20520;-78
2022/05/20 08:14:31;;;;;;;4.50;1.90;;;17.40;99.90;;;;;;5094081;28;20198;-78
2022/05/20 08:16:57;;;;;;;;;;;17.40;99.90;;;;;;5114517;27;20142;-79
2022/05/20 08:19:23;;;;;;;3.50;1.55;;;17.40;99.90;;;;;;5113605;28;19916;-77
2022/05/20 08:21:49;;;;;;;;;;;17.40;99.90;;;;;;5097824;28;20078;-79
2022/05/20 08:24:15;;;;;;;4.53;2.88;;;17.50;99.90;;;;;;5112100;28;19919;-77
2022/05/20 08:26:40;;;;;;;4.43;2.13;;;17.70;99.90;;;;;;5095182;28;20043;-78
2022/05/20 08:29:06;;;;;;;;;;;18.10;99.90;;;;;;5111358;28;20053;-78
2022/05/20 08:31:33;;;;;;;3.08;1.52;;;18.70;99.90;;;;;;5110471;28;19963;-78
2022/05/20 08:34:02;;;;;;;2.70;1.60;;;18.90;99.90;;;;;;5093388;28;20075;-78
2022/05/20 08:36:29;;;;;;;3.33;1.67;;;18.90;99.90;;;;;;5110362;28;20115;-78
2022/05/20 08:38:55;;;;;;;2.95;1.52;;;18.70;99.90;;;;;;5111917;28;20044;-78
2022/05/20 08:41:46;;;;;;;3.80;1.20;;;18.60;99.90;;;;;;5110690;28;20055;-78
2022/05/20 08:44:15;;;;;;;2.35;1.10;;;18.40;99.90;;;;;;5103577;28;20055;-78
2022/05/20 08:46:41;;;;;;;2.90;1.10;;;18.30;99.90;;;;;;5110849;28;20043;-78
2022/05/20 08:49:14;;;;;;;;;;;18.50;99.90;;;;;;5111045;28;20128;-78
2022/05/20 08:51:42;;;;;;;2.67;1.33;;;18.80;99.90;;;;;;5110563;28;19915;-78
2022/05/20 08:54:09;;;;;;;2.90;1.17;;;19.10;99.90;;;;;;5110272;28;20047;-78
2022/05/20 08:56:37;;;;;;;2.60;1.45;;;19.40;99.90;;;;;;5110587;28;20092;-78
2022/05/20 08:59:10;;;;;;;3.40;1.40;;;19.40;99.90;;;;;;5110487;28;20091;-78
2022/05/20 09:01:37;;;;;;;1.83;0.90;;;19.50;99.90;;;;;;5110198;28;20097;-78
2022/05/20 09:04:06;;;;;;;3.05;1.50;;;19.40;99.90;;;;;;5111610;28;20329;-78
2022/05/20 09:06:36;;;;;;;3.05;1.40;;;19.30;99.90;;;;;;5110216;28;20050;-78
2022/05/20 09:09:11;;;;;;;3.42;1.13;;;19.20;99.90;;;;;;5111711;28;20532;-78
2022/05/20 09:11:38;;;;;;;3.28;1.30;;;19.40;99.90;;;;;;5110113;28;20121;-78
2022/05/20 09:17:09;;;;;;;2.50;1.25;;;19.40;99.90;;;;;;5109838;28;20047;-78
2022/05/20 09:19:36;;;;;;;2.78;1.20;;;19.40;99.90;;;;;;5109817;28;20093;-78
2022/05/20 09:22:06;;;;;;;1.73;1.15;;;19.40;99.90;;;;;;5111197;28;20048;-78
2022/05/20 09:24:44;;;;;;;2.88;1.30;;;19.50;99.90;;;;;;5092701;28;20124;-78
2022/05/20 09:27:17;;;;;;;3.85;1.52;;;19.40;99.90;;;;;;5092983;28;20054;-78
2022/05/20 09:29:58;;;;;;;2.60;1.02;;;19.40;99.90;;;;;;5109958;28;20053;-77
2022/05/20 09:32:38;;;;;;;2.67;1.30;;;19.30;99.90;;;;;;5109975;28;20083;-78
2022/05/20 09:35:13;;;;;;;2.47;1.45;;;19.50;99.90;;;;;;5111484;28;20040;-78
2022/05/20 09:37:38;;;;;;;2.50;1.40;;;19.60;99.90;;;;;;5115333;28;20529;-78
2022/05/20 09:40:17;;;;;;;;;;;19.70;99.90;;;;;;5114803;28;20043;-78
2022/05/20 09:42:57;;;;;;;3.33;1.40;;;19.90;99.90;;;;;;5113850;28;19920;-78
2022/05/20 09:45:23;;;;;;;3.05;1.38;;;20.10;99.90;;;;;;5116774;28;20091;-77
2022/05/20 09:47:51;;;;;;;;;;;20.00;99.90;;;;;;5115610;28;20142;-77
2022/05/20 09:50:17;;;;;;;2.35;1.10;;;19.90;99.90;;;;;;5114440;28;19919;-77
2022/05/20 09:52:52;;;;;;;;;;;19.70;99.90;;;;;;5115025;28;20123;-79
2022/05/20 09:55:39;;;;;;;2.05;1.08;;;19.80;99.90;;;;;;5114227;28;19963;-77
2022/05/20 09:58:16;;;;;;;1.33;0.70;;;19.70;99.90;;;;;;5114199;28;20046;-78
2022/05/20 10:00:47;;;;;;;1.83;0.75;;;19.70;99.90;;;;;;5113559;28;20095;-78
2022/05/20 10:03:29;;;;;;;1.52;0.85;;;19.80;99.90;;;;;;5113173;28;20042;-78
2022/05/20 10:06:18;;;;;;;1.35;0.70;;;19.70;99.90;;;;;;5114900;27;20039;-78
2022/05/20 10:08:44;;;;;;;1.90;0.73;;;19.70;99.90;;;;;;5113406;28;20173;-78
2022/05/20 10:11:38;;;;;;;2.60;1.20;;;19.70;99.90;;;;;;5113105;28;20126;-78
2022/05/20 10:14:18;;;;;;;3.00;1.45;;;19.40;99.90;;;;;;5113080;28;20043;-77
2022/05/20 10:16:56;;;;;;;3.53;1.38;;;19.20;99.90;;;;;;5113111;28;20048;-78
2022/05/20 10:20:06;;;;;;;1.63;0.90;;;19.00;99.90;;;;;;5113269;28;20574;-77
2022/05/20 10:22:56;;;;;;;2.60;1.83;;;19.00;99.90;;;;;;5054183;28;20044;-78
2022/05/20 10:25:57;;;;;;;2.28;1.30;;;19.10;99.90;;;;;;5110154;28;20063;-77
2022/05/20 10:34:27;;;;;;;2.30;1.05;;;19.40;99.90;;;;;;5108152;28;20489;-78
2022/05/20 10:37:05;;;;;;;;;;;19.50;99.90;;;;;;5113493;28;20047;-78
2022/05/20 10:39:57;;;;;;;2.03;1.10;;;19.60;99.90;;;;;;5112849;28;20347;-77
2022/05/20 10:42:43;;;;;;;3.22;1.58;;;19.70;99.90;;;;;;5112493;28;20347;-77
2022/05/20 10:48:42;;;;;;;2.83;1.40;;;19.70;99.90;;;;;;5111964;28;20083;-78
2022/05/20 10:51:31;;;;;;;3.10;1.30;;;19.70;99.90;;;;;;5112910;28;20047;-78
2022/05/20 10:54:15;;;;;;;3.17;1.48;;;19.70;99.90;;;;;;5112997;28;20051;-79
2022/05/20 10:56:50;;;;;;;2.10;1.13;;;19.70;99.90;;;;;;5112781;28;20065;-79
2022/05/20 10:59:42;;;;;;;2.72;1.15;;;19.80;99.90;;;;;;5112763;28;20036;-79
2022/05/20 11:02:10;;;;;;;3.42;1.60;;;20.00;99.90;;;;;;5112345;28;20042;-78
2022/05/20 11:05:00;;;;;;;3.10;1.52;;;19.90;99.90;;;;;;5112314;28;20050;-79
2022/05/20 11:07:32;;;;;;;3.03;1.40;;;19.90;99.90;;;;;;5112297;28;20539;-79
2022/05/20 11:10:09;;;;;;;2.55;1.35;;;19.90;99.90;;;;;;5112096;28;20039;-78
2022/05/20 11:12:45;;;;;;;2.67;1.60;;;20.00;99.90;;;;;;5095320;28;20390;-78
2022/05/20 11:15:17;;;;;;;2.55;1.27;;;19.90;99.90;;;;;;5112476;28;20043;-78
2022/05/20 11:17:49;;;;;;;2.55;1.42;;;19.90;99.90;;;;;;5097146;28;20070;-78
2022/05/20 11:20:14;;;;;;;3.28;1.60;;;19.80;99.90;;;;;;5115523;28;20050;-79
2022/05/20 11:22:49;;;;;;;3.38;1.75;;;19.90;99.90;;;;;;5117138;28;20051;-78
2022/05/20 11:25:18;;;;;;;1.88;1.00;;;20.00;99.90;;;;;;5114537;28;20051;-79
2022/05/20 11:27:52;;;;;;;3.13;1.52;;;20.40;99.90;;;;;;5113619;28;20498;-80
2022/05/20 11:30:27;;;;;;;2.85;1.23;;;20.40;99.90;;;;;;5111766;28;20039;-80
2022/05/20 11:33:13;;;;;;;2.90;1.55;;;20.70;99.90;;;;;;5111849;28;20506;-80
2022/05/20 11:36:04;;;;;;;2.28;1.40;;;20.70;99.90;;;;;;5111641;28;20069;-78
2022/05/20 11:39:06;;;;;;;2.65;1.27;;;20.80;99.90;;;;;;5111969;28;20048;-78
2022/05/20 11:42:05;;;;;;;2.85;1.65;;;21.10;99.90;;;;;;5052907;28;20514;-79
2022/05/20 11:44:40;;;;;;;2.10;1.50;;;21.00;99.40;;;;;;5111275;28;20051;-79
2022/05/20 11:47:42;;;;;;;2.17;1.20;;;21.10;99.60;;;;;;5111194;28;20122;-78
2022/05/20 11:50:30;;;;;;;3.10;1.38;;;21.20;99.10;;;;;;5111587;28;20478;-78
2022/05/20 11:53:27;;;;;;;2.65;1.45;;;21.20;99.30;;;;;;5111592;28;20050;-78
2022/05/20 11:56:05;;;;;;;4.13;1.70;;;21.10;98.60;;;;;;5111330;28;20123;-78
2022/05/20 11:58:40;;;;;;;3.30;1.50;;;21.20;98.60;;;;;;5111211;28;20058;-79
2022/05/20 12:01:08;;;;;;;3.28;1.60;;;21.20;98.80;;;;;;5111521;28;20086;-79
2022/05/20 12:06:25;;;;;;;2.47;1.55;;;21.10;96.20;;;;;;5111173;28;20051;-79
2022/05/20 12:08:59;;;;;;;2.13;1.33;;;21.00;95.80;;;;;;5111411;28;20086;-78
2022/05/20 12:11:37;;;;;;;2.15;1.42;;;20.80;95.90;;;;;;5111030;28;20114;-78
2022/05/20 12:14:16;;;;;;;2.70;1.20;;;20.70;93.10;;;;;;5111123;28;20055;-78
2022/05/20 12:16:54;;;;;;;1.00;0.90;;;20.70;95.50;;;;;;5110852;28;20047;-78
2022/05/20 12:25:39;;;;;;;2.03;1.10;;;20.60;94.30;;;;;;5114574;28;20100;-79
2022/05/20 12:28:04;;;;;;;1.38;0.93;;;20.60;94.40;;;;;;5114098;28;20048;-78
2022/05/20 12:30:36;;;;;;;1.95;1.38;;;20.70;95.30;;;;;;5113720;28;20061;-79
2022/05/20 12:33:23;;;;;;;2.72;1.67;;;20.70;94.10;;;;;;5114016;28;20135;-78
2022/05/20 12:36:17;;;;;;;2.65;1.50;;;20.70;93.20;;;;;;5093730;28;20047;-78
2022/05/20 12:38:43;;;;;;;3.03;1.30;;;20.70;93.00;;;;;;5110834;28;20083;-79
2022/05/20 12:41:47;;;;;;;2.17;1.10;;;20.90;93.10;;;;;;5110593;28;20062;-79
2022/05/20 12:44:16;;;;;;;1.58;1.00;;;21.20;93.20;;;;;;5087711;28;20047;-79
2022/05/20 12:47:03;;;;;;;1.10;0.98;;;21.50;92.90;;;;;;5110997;28;20444;-79
2022/05/20 12:49:45;;;;;;;2.33;1.27;;;21.60;92.40;;;;;;5111452;28;20508;-79
2022/05/20 12:52:17;;;;;;;3.17;1.70;;;21.50;92.70;;;;;;5111133;28;20549;-79
2022/05/20 12:54:49;;;;;;;1.92;1.35;;;21.30;92.30;;;;;;5110993;28;20498;-79
2022/05/20 12:57:21;;;;;;;1.60;1.50;;;21.20;93.20;;;;;;5110971;28;20136;-79
2022/05/20 13:00:12;;;;;;;2.72;1.60;;;21.10;93.80;;;;;;5110885;28;20122;-79
2022/05/20 13:02:53;;;;;;;3.45;2.58;;;21.00;94.70;;;;;;5110402;28;20410;-79
2022/05/20 13:05:27;;;;;;;4.68;2.38;;;20.90;94.50;;;;;;5110361;28;20126;-79
2022/05/20 13:07:55;;;;;;;4.22;2.15;;;20.90;94.00;;;;;;5110422;28;20035;-79
2022/05/20 13:10:23;;;;;;;4.75;2.70;;;20.90;93.40;;;;;;5109904;28;20039;-79
2022/05/20 13:12:53;;;;;;;4.78;2.97;;;20.70;93.50;;;;;;5111426;28;20052;-79
2022/05/20 13:15:20;;;;;;;4.90;3.17;;;20.50;93.80;;;;;;5110559;28;20043;-79
2022/05/20 13:18:00;;;;;;;3.40;2.08;;;20.30;94.70;;;;;;5093410;28;20479;-79
2022/05/20 13:20:28;;;;;;;2.40;1.50;;;20.20;95.20;;;;;;5110559;28;20100;-79
2022/05/20 13:22:59;;;;;;;4.35;2.58;;;20.10;95.50;;;;;;5110547;28;20122;-79
2022/05/20 13:25:25;;;;;;;2.10;1.50;;;19.90;95.20;;;;;;5093989;28;20050;-79
2022/05/20 13:27:51;;;;;;;3.40;2.20;;;19.80;95.30;;;;;;5093643;28;20036;-79
2022/05/20 13:30:29;;;;;;;4.32;2.25;;;19.70;95.30;;;;;;5110528;28;20072;-79
2022/05/20 13:33:07;;;;;;;2.20;1.42;;;19.60;94.50;;;;;;5110545;28;20084;-79
2022/05/20 13:35:45;;;;;;;3.42;2.25;;;19.60;95.00;;;;;;5110564;28;20086;-78
2022/05/20 13:38:11;;;;;;;3.65;2.10;;;19.50;95.00;;;;;;5110835;28;20071;-78
2022/05/20 13:40:38;;;;;;;;;;;19.50;95.30;;;;;;5111043;28;20448;-78
2022/05/20 13:43:04;;;;;;;2.40;1.67;;;19.50;96.10;;;;;;5110231;28;19973;-78
2022/05/20 13:51:09;;;;;;;2.88;1.52;;;19.20;96.10;;;;;;5110235;28;20138;-78
2022/05/20 13:53:38;;;;;;;3.13;2.00;;;19.10;96.70;;;;;;5110653;28;20043;-79
2022/05/20 13:56:06;;;;;;;2.90;1.80;;;19.10;96.10;;;;;;5110672;28;20090;-79
2022/05/20 13:58:32;;;;;;;3.00;1.50;;;18.90;95.80;;;;;;5110383;28;20519;-79
2022/05/20 14:01:04;;;;;;;5.55;1.75;;;18.90;96.40;;;;;;5109880;28;20490;-78
2022/05/20 14:03:37;;;;;;;2.00;1.30;;;18.80;97.50;;;;;;5093314;28;20052;-78